createdAt,value
2018-01-15T00:00:32.646Z,21.30
2018-01-15T00:03:00.141Z,19.83
2018-01-15T00:05:27.663Z,21.20
2018-01-15T00:07:55.161Z,21.40
2018-01-15T00:10:22.722Z,23.40
2018-01-15T00:12:51.032Z,22.90
2018-01-15T00:15:19.387Z,23.33
2018-01-15T00:17:46.975Z,22.80
2018-01-15T00:20:15.317Z,22.47
2018-01-15T00:22:42.890Z,24.50
2018-01-15T00:25:10.463Z,23.67
2018-01-15T00:27:38.778Z,22.27
2018-01-15T00:30:06.338Z,24.37
2018-01-15T00:32:33.875Z,22.40
2018-01-15T00:35:01.417Z,22.60
2018-01-15T00:37:29.748Z,22.77
2018-01-15T00:39:57.313Z,23.00
2018-01-15T00:42:24.884Z,21.43
2018-01-15T00:44:52.430Z,23.47
2018-01-15T00:47:19.988Z,23.10
2018-01-15T00:49:47.511Z,23.67
2018-01-15T00:52:15.010Z,22.60
2018-01-15T00:54:42.526Z,22.33
2018-01-15T00:57:10.794Z,22.53
2018-01-15T00:59:39.086Z,21.37
2018-01-15T01:02:06.590Z,24.30
2018-01-15T01:04:34.115Z,22.57
2018-01-15T01:07:01.622Z,23.67
2018-01-15T01:09:29.150Z,22.80
2018-01-15T01:11:56.650Z,24.40
2018-01-15T01:14:24.937Z,21.73
2018-01-15T01:16:53.222Z,20.87
2018-01-15T01:19:20.734Z,20.73
2018-01-15T01:21:49.022Z,21.33
2018-01-15T01:24:16.529Z,24.37
2018-01-15T01:26:44.051Z,21.67
2018-01-15T01:29:12.330Z,24.47
2018-01-15T01:31:40.619Z,22.00
2018-01-15T01:34:08.889Z,20.80
2018-01-15T01:36:37.174Z,21.97
2018-01-15T01:39:05.447Z,21.60
2018-01-15T01:41:33.739Z,21.00
2018-01-15T01:44:01.247Z,23.43
2018-01-15T01:46:28.766Z,21.07
2018-01-15T01:48:59.164Z,21.40
2018-01-15T01:51:27.459Z,19.87
2018-01-15T01:53:54.961Z,20.80
2018-01-15T01:56:22.477Z,20.23
2018-01-15T01:58:49.978Z,20.43
2018-01-15T02:01:17.502Z,22.70
2018-01-15T02:03:45.007Z,23.17
2018-01-15T02:06:12.526Z,22.63
2018-01-15T02:08:40.035Z,22.37
2018-01-15T02:11:08.318Z,22.00
2018-01-15T02:13:36.593Z,22.00
2018-01-15T02:16:04.878Z,24.10
2018-01-15T02:18:33.467Z,22.03
2018-01-15T02:21:00.999Z,21.50
2018-01-15T02:23:28.504Z,21.60
2018-01-15T02:25:56.022Z,22.53
2018-01-15T02:28:24.286Z,22.37
2018-01-15T02:30:51.810Z,22.13
2018-01-15T02:33:19.311Z,20.63
2018-01-15T02:35:47.604Z,19.43
2018-01-15T02:38:15.870Z,23.40
2018-01-15T02:40:44.148Z,20.40
2018-01-15T02:43:12.426Z,20.30
2018-01-15T02:45:40.714Z,20.63
2018-01-15T02:48:08.214Z,23.27
2018-01-15T02:50:35.732Z,25.17
2018-01-15T02:53:03.225Z,24.70
2018-01-15T02:55:30.747Z,22.87
2018-01-15T02:57:58.254Z,21.83
2018-01-15T03:00:25.776Z,22.13
2018-01-15T03:02:53.279Z,23.23
2018-01-15T03:05:20.798Z,21.57
2018-01-15T03:07:48.306Z,23.47
2018-01-15T03:10:16.726Z,22.43
2018-01-15T03:12:44.226Z,23.10
2018-01-15T03:15:11.738Z,23.03
2018-01-15T03:17:39.233Z,21.70
2018-01-15T03:20:06.750Z,22.53
2018-01-15T03:22:34.250Z,21.97
2018-01-15T03:25:01.770Z,21.13
2018-01-15T03:27:29.298Z,23.03
2018-01-15T03:29:56.798Z,23.60
2018-01-15T03:32:24.318Z,21.50
2018-01-15T03:34:52.587Z,21.83
2018-01-15T03:37:20.102Z,20.83
2018-01-15T03:39:47.607Z,20.27
2018-01-15T03:42:15.890Z,19.90
2018-01-15T03:44:44.153Z,20.03
2018-01-15T03:47:11.675Z,20.40
2018-01-15T03:49:39.177Z,19.87
2018-01-15T03:52:07.467Z,22.67
2018-01-15T03:54:35.737Z,21.50
2018-01-15T03:57:04.022Z,20.70
2018-01-15T03:59:32.294Z,20.60
2018-01-15T04:02:00.583Z,21.53
2018-01-15T04:04:28.090Z,21.90
2018-01-15T04:06:55.606Z,21.10
2018-01-15T04:09:23.106Z,21.50
2018-01-15T04:11:50.626Z,20.73
2018-01-15T04:14:18.130Z,19.67
2018-01-15T04:16:45.650Z,23.13
2018-01-15T04:19:13.158Z,23.00
2018-01-15T04:21:40.698Z,22.87
2018-01-15T04:24:08.202Z,22.83
2018-01-15T04:26:35.717Z,23.70
2018-01-15T04:29:03.222Z,21.90
2018-01-15T04:31:30.750Z,23.17
2018-01-15T04:33:58.255Z,23.43
2018-01-15T04:36:25.766Z,22.30
2018-01-15T04:38:54.040Z,22.17
2018-01-15T04:41:21.554Z,22.83
2018-01-15T04:43:49.059Z,21.30
2018-01-15T04:46:17.354Z,21.77
2018-01-15T04:48:45.618Z,22.97
2018-01-15T04:51:13.906Z,22.97
2018-01-15T04:53:42.173Z,21.93
2018-01-15T04:56:10.454Z,21.87
2018-01-15T04:58:38.722Z,22.13
2018-01-15T05:01:07.005Z,20.00
2018-01-15T05:03:35.280Z,19.70
2018-01-15T05:06:03.561Z,23.13
2018-01-15T05:08:31.829Z,21.23
2018-01-15T05:11:00.110Z,22.13
2018-01-15T05:13:28.378Z,21.33
2018-01-15T05:15:56.669Z,21.57
2018-01-15T05:18:24.165Z,21.40
2018-01-15T05:20:51.674Z,21.13
2018-01-15T05:23:19.958Z,21.37
2018-01-15T05:25:48.227Z,21.40
2018-01-15T05:28:16.511Z,21.13
2018-01-15T05:30:44.016Z,20.87
2018-01-15T05:33:11.554Z,21.07
2018-01-15T05:35:39.063Z,22.00
2018-01-15T05:38:06.623Z,21.73
2018-01-15T05:40:34.889Z,22.43
2018-01-15T05:43:02.410Z,23.00
2018-01-15T05:45:29.934Z,23.10
2018-01-15T05:47:59.398Z,22.53
2018-01-15T05:50:27.761Z,22.03
2018-01-15T05:52:55.291Z,22.17
2018-01-15T05:55:22.840Z,22.27
2018-01-15T05:57:50.509Z,22.93
2018-01-15T06:00:19.171Z,22.37
2018-01-15T06:02:48.468Z,19.63
2018-01-15T06:05:16.818Z,21.53
2018-01-15T06:07:44.430Z,20.40
2018-01-15T06:10:11.985Z,20.90
2018-01-15T06:12:39.572Z,19.93
2018-01-15T06:15:07.161Z,24.03
2018-01-15T06:17:34.714Z,22.00
2018-01-15T06:20:02.278Z,20.80
2018-01-15T06:22:29.819Z,23.50
2018-01-15T06:24:58.082Z,23.40
2018-01-15T06:27:25.597Z,22.27
2018-01-15T06:29:53.861Z,21.20
2018-01-15T06:32:21.381Z,20.83
2018-01-15T06:34:48.877Z,23.30
2018-01-15T06:37:16.394Z,20.30
2018-01-15T06:39:43.894Z,22.77
2018-01-15T06:42:11.457Z,23.97
2018-01-15T06:44:39.828Z,23.87
2018-01-15T06:47:07.381Z,21.87
2018-01-15T06:49:36.351Z,22.00
2018-01-15T06:52:03.901Z,24.00
2018-01-15T06:54:31.402Z,23.23
2018-01-15T06:56:58.925Z,21.57
2018-01-15T06:59:26.434Z,23.83
2018-01-15T07:01:54.718Z,21.50
2018-01-15T07:04:22.982Z,21.07
2018-01-15T07:06:51.270Z,20.90
2018-01-15T07:09:18.774Z,22.30
2018-01-15T07:11:46.299Z,23.03
2018-01-15T07:14:13.807Z,25.70
2018-01-15T07:16:41.334Z,20.50
2018-01-15T07:19:08.835Z,19.97
2018-01-15T07:21:36.341Z,19.47
2018-01-15T07:24:03.861Z,20.87
2018-01-15T07:26:32.129Z,21.63
2018-01-15T07:28:59.646Z,18.37
2018-01-15T07:31:27.158Z,20.63
2018-01-15T07:33:55.438Z,20.27
2018-01-15T07:36:23.702Z,18.97
2018-01-15T07:38:51.986Z,17.87
2018-01-15T07:41:20.250Z,19.87
2018-01-15T07:43:47.825Z,18.73
2018-01-15T07:46:15.307Z,20.10
2018-01-15T07:48:42.823Z,19.03
2018-01-15T07:51:10.322Z,19.97
2018-01-15T07:53:37.834Z,16.97
2018-01-15T07:56:05.342Z,19.70
2018-01-15T07:58:32.871Z,18.13
2018-01-15T08:01:01.138Z,19.10
2018-01-15T08:03:29.450Z,18.17
2018-01-15T08:05:56.951Z,17.30
2018-01-15T08:08:24.467Z,23.03
2018-01-15T08:10:51.967Z,19.77
2018-01-15T08:13:19.485Z,22.03
2018-01-15T08:15:46.994Z,18.50
2018-01-15T08:18:14.514Z,19.40
2018-01-15T08:20:42.014Z,18.77
2018-01-15T08:23:09.546Z,17.93
2018-01-15T08:25:37.045Z,19.17
2018-01-15T08:28:05.332Z,25.10
2018-01-15T08:30:32.830Z,21.53
2018-01-15T08:33:00.341Z,18.97
2018-01-15T08:35:28.611Z,19.03
2018-01-15T08:37:56.905Z,19.13
2018-01-15T08:40:24.409Z,18.83
2018-01-15T08:42:51.935Z,17.93
2018-01-15T08:45:19.447Z,16.10
2018-01-15T08:47:46.970Z,16.70
2018-01-15T08:50:14.482Z,16.77
2018-01-15T08:52:42.747Z,16.73
2018-01-15T08:55:11.034Z,15.80
2018-01-15T08:57:39.294Z,16.53
2018-01-15T09:00:06.814Z,16.70
2018-01-15T09:02:34.313Z,16.30
2018-01-15T09:05:02.594Z,17.00
2018-01-15T09:07:30.858Z,16.30
2018-01-15T09:09:58.374Z,18.10
2018-01-15T09:12:25.866Z,15.83
2018-01-15T09:14:53.390Z,16.20
2018-01-15T09:17:20.886Z,16.40
2018-01-15T09:19:48.398Z,16.47
2018-01-15T09:22:15.898Z,16.23
2018-01-15T09:24:43.414Z,16.57
2018-01-15T09:27:10.919Z,17.30
2018-01-15T09:29:38.834Z,41.53
2018-01-15T09:32:06.338Z,23.23
2018-01-15T09:34:33.854Z,17.43
2018-01-15T09:37:01.354Z,17.73
2018-01-15T09:39:28.878Z,18.80
2018-01-15T09:41:56.369Z,17.50
2018-01-15T09:44:23.887Z,18.50
2018-01-15T09:46:51.392Z,18.13
2018-01-15T09:49:18.914Z,15.90
2018-01-15T09:51:46.412Z,14.97
2018-01-15T09:54:13.928Z,16.80
2018-01-15T09:56:41.420Z,14.80
2018-01-15T09:59:08.938Z,14.90
2018-01-15T10:01:36.434Z,13.13
2018-01-15T10:04:03.951Z,15.00
2018-01-15T10:06:31.458Z,14.57
2018-01-15T10:08:58.976Z,14.97
2018-01-15T10:11:26.474Z,13.97
2018-01-15T10:13:53.989Z,14.47
2018-01-15T10:16:21.485Z,14.80
2018-01-15T10:18:49.002Z,13.97
2018-01-15T10:21:17.261Z,14.53
2018-01-15T10:23:44.778Z,14.87
2018-01-15T10:26:12.274Z,18.70
2018-01-15T10:28:39.790Z,14.23
2018-01-15T10:31:07.292Z,48.00
2018-01-15T10:33:34.806Z,15.47
2018-01-15T10:36:02.302Z,13.53
2018-01-15T10:38:29.814Z,12.37
2018-01-15T10:40:57.315Z,12.00
2018-01-15T10:43:24.833Z,12.57
2018-01-15T10:45:52.331Z,12.10
2018-01-15T10:48:19.834Z,10.93
2018-01-15T10:50:47.350Z,10.93
2018-01-15T10:53:14.852Z,9.57
2018-01-15T10:55:42.363Z,9.03
2018-01-15T10:58:09.858Z,9.37
2018-01-15T11:00:43.023Z,9.03
2018-01-15T11:03:10.549Z,9.30
2018-01-15T11:05:38.048Z,9.07
2018-01-15T11:08:05.546Z,8.03
2018-01-15T11:10:33.070Z,9.50
2018-01-15T11:13:00.570Z,8.50
2018-01-15T11:15:28.083Z,8.63
2018-01-15T11:17:55.582Z,8.20
2018-01-15T11:20:23.089Z,7.93
2018-01-15T11:22:50.592Z,9.67
2018-01-15T11:25:18.973Z,7.93
2018-01-15T11:27:46.466Z,8.10
2018-01-15T11:30:14.748Z,8.27
2018-01-15T11:32:43.086Z,7.40
2018-01-15T11:35:10.603Z,6.67
2018-01-15T11:37:38.097Z,7.60
2018-01-15T11:40:05.606Z,8.20
2018-01-15T11:42:33.102Z,8.03
2018-01-15T11:45:00.614Z,7.07
2018-01-15T11:47:28.119Z,8.53
2018-01-15T11:49:55.625Z,6.57
2018-01-15T11:52:23.888Z,6.40
2018-01-15T11:54:52.170Z,6.57
2018-01-15T11:57:20.439Z,6.10
2018-01-15T11:59:48.714Z,6.37
2018-01-15T12:02:16.973Z,7.13
2018-01-15T12:04:44.479Z,6.50
2018-01-15T12:07:11.980Z,7.40
2018-01-15T12:09:39.498Z,6.73
2018-01-15T12:12:07.002Z,5.93
2018-01-15T12:14:34.494Z,6.50
2018-01-15T12:17:02.765Z,5.60
2018-01-15T12:19:31.038Z,6.03
2018-01-15T12:21:59.317Z,5.83
2018-01-15T12:24:27.583Z,6.00
2018-01-15T12:26:55.859Z,6.30
2018-01-15T12:29:24.117Z,7.07
2018-01-15T12:31:51.629Z,5.60
2018-01-15T12:34:19.117Z,5.93
2018-01-15T12:36:46.638Z,6.33
2018-01-15T12:39:14.131Z,5.50
2018-01-15T12:41:42.234Z,5.73
2018-01-15T12:44:10.492Z,5.70
2018-01-15T12:46:38.791Z,6.00
2018-01-15T12:49:07.074Z,5.73
2018-01-15T12:51:35.346Z,5.30
2018-01-15T12:54:03.606Z,6.37
2018-01-15T12:56:31.115Z,5.77
2018-01-15T12:58:58.605Z,5.07
2018-01-15T13:01:26.119Z,6.67
2018-01-15T13:03:53.622Z,5.47
2018-01-15T13:06:21.125Z,5.10
2018-01-15T13:09:07.138Z,4.63
2018-01-15T13:11:34.665Z,5.60
2018-01-15T13:14:02.931Z,5.27
2018-01-15T13:16:31.207Z,4.70
2018-01-15T13:18:59.462Z,5.57
2018-01-15T13:21:26.970Z,5.10
2018-01-15T13:23:54.467Z,5.27
2018-01-15T13:26:22.003Z,4.53
2018-01-15T13:28:49.502Z,4.90
2018-01-15T13:31:16.990Z,4.50
2018-01-15T13:33:44.498Z,4.20
2018-01-15T13:36:11.990Z,4.10
2018-01-15T13:38:40.278Z,4.67
2018-01-15T13:41:08.538Z,3.70
2018-01-15T13:43:36.814Z,4.07
2018-01-15T13:46:05.073Z,4.40
2018-01-15T13:48:32.581Z,4.17
2018-01-15T13:51:00.080Z,3.20
2018-01-15T13:53:27.585Z,3.77
2018-01-15T13:55:55.078Z,3.57
2018-01-15T13:58:22.587Z,3.97
2018-01-15T14:00:50.847Z,3.10
2018-01-15T14:03:18.354Z,3.80
2018-01-15T14:05:45.843Z,3.17
2018-01-15T14:08:13.364Z,3.73
2018-01-15T14:10:40.854Z,3.83
2018-01-15T14:13:08.362Z,3.70
2018-01-15T14:15:36.620Z,3.67
2018-01-15T14:18:04.897Z,3.57
2018-01-15T14:20:33.199Z,3.80
2018-01-15T14:23:01.451Z,4.27
2018-01-15T14:25:29.709Z,4.43
2018-01-15T14:27:57.226Z,4.30
2018-01-15T14:30:24.722Z,3.87
2018-01-15T14:32:52.228Z,3.90
2018-01-15T14:35:19.726Z,4.27
2018-01-15T14:37:47.229Z,6.97
2018-01-15T14:40:15.492Z,12.60
2018-01-15T14:42:43.769Z,8.30
2018-01-15T14:45:12.035Z,5.33
2018-01-15T14:47:39.546Z,5.30
2018-01-15T14:50:07.042Z,4.93
2018-01-15T14:52:34.554Z,4.67
2018-01-15T14:55:02.050Z,4.33
2018-01-15T14:57:29.558Z,4.37
2018-01-15T14:59:57.053Z,4.03
2018-01-15T15:02:25.326Z,4.07
2018-01-15T15:04:52.814Z,4.13
2018-01-15T15:07:20.330Z,4.17
2018-01-15T15:09:47.821Z,4.00
2018-01-15T15:12:15.337Z,3.80
2018-01-15T15:14:43.095Z,3.97
2018-01-15T15:17:10.586Z,4.17
2018-01-15T15:19:38.094Z,4.10
2018-01-15T15:22:05.594Z,4.90
2018-01-15T15:24:33.104Z,4.23
2018-01-15T15:27:01.362Z,4.53
2018-01-15T15:29:29.633Z,4.70
2018-01-15T15:31:57.126Z,5.20
2018-01-15T15:34:24.639Z,4.40
2018-01-15T15:36:52.130Z,4.13
2018-01-15T15:39:20.410Z,6.80
2018-01-15T15:41:47.910Z,9.50
2018-01-15T15:44:15.430Z,6.70
2018-01-15T15:46:42.918Z,4.77
2018-01-15T15:49:10.421Z,4.33
2018-01-15T15:51:38.675Z,4.07
2018-01-15T15:54:06.182Z,4.93
2018-01-15T15:56:33.673Z,3.83
2018-01-15T15:59:01.177Z,3.90
2018-01-15T16:01:29.442Z,24.67
2018-01-15T16:03:56.958Z,61.63
2018-01-15T16:06:24.455Z,7.13
2018-01-15T16:08:51.966Z,6.97
2018-01-15T16:11:19.462Z,9.90
2018-01-15T16:13:46.966Z,9.27
2018-01-15T16:16:14.462Z,5.80
2018-01-15T16:18:41.969Z,7.30
2018-01-15T16:21:10.222Z,7.33
2018-01-15T16:23:37.729Z,9.17
2018-01-15T16:26:05.223Z,8.10
2018-01-15T16:28:33.526Z,8.10
2018-01-15T16:31:01.786Z,9.20
2018-01-15T16:33:29.282Z,9.07
2018-01-15T16:35:56.786Z,8.50
2018-01-15T16:38:24.282Z,10.20
2018-01-15T16:40:51.801Z,10.00
2018-01-15T16:43:19.309Z,10.10
2018-01-15T16:45:46.814Z,9.77
2018-01-15T16:48:14.310Z,8.60
2018-01-15T16:50:42.585Z,8.50
2018-01-15T16:53:10.847Z,8.50
2018-01-15T16:55:38.358Z,18.90
2018-01-15T16:58:05.857Z,22.40
2018-01-15T17:00:33.424Z,12.87
2018-01-15T17:03:00.894Z,10.67
2018-01-15T17:05:29.172Z,8.70
2018-01-15T17:07:57.434Z,8.07
2018-01-15T17:10:25.714Z,5.93
2018-01-15T17:12:53.986Z,7.13
2018-01-15T17:15:22.268Z,12.03
2018-01-15T17:17:50.529Z,9.10
2018-01-15T17:20:18.054Z,9.90
2018-01-15T17:22:45.545Z,9.60
2018-01-15T17:25:13.050Z,14.10
2018-01-15T17:27:40.571Z,25.03
2018-01-15T17:30:08.834Z,18.37
2018-01-15T17:32:37.133Z,12.20
2018-01-15T17:35:05.402Z,19.70
2018-01-15T17:37:33.678Z,28.63
2018-01-15T17:40:01.946Z,30.30
2018-01-15T17:42:29.469Z,21.60
2018-01-15T17:44:56.981Z,16.77
2018-01-15T17:47:25.265Z,26.70
2018-01-15T17:49:52.753Z,30.70
2018-01-15T17:52:20.273Z,34.57
2018-01-15T17:54:48.530Z,28.53
2018-01-15T17:57:16.042Z,16.13
2018-01-15T17:59:43.538Z,12.27
2018-01-15T18:02:11.054Z,11.43
2018-01-15T18:04:38.550Z,6.80
2018-01-15T18:07:06.064Z,9.63
2018-01-15T18:09:33.566Z,12.60
2018-01-15T18:12:01.077Z,7.43
2018-01-15T18:14:28.566Z,8.20
2018-01-15T18:16:56.069Z,8.30
2018-01-15T18:19:23.573Z,9.67
2018-01-15T18:21:51.089Z,7.73
2018-01-15T18:24:18.592Z,12.17
2018-01-15T18:26:46.102Z,8.90
2018-01-15T18:29:14.366Z,15.13
2018-01-15T18:31:42.642Z,7.53
2018-01-15T18:34:10.906Z,12.37
2018-01-15T18:36:38.492Z,9.30
2018-01-15T18:39:06.061Z,7.67
2018-01-15T18:41:33.578Z,7.50
2018-01-15T18:44:01.079Z,7.17
2018-01-15T18:46:28.589Z,7.40
2018-01-15T18:48:56.082Z,7.50
2018-01-15T18:51:23.594Z,8.70
2018-01-15T18:53:51.093Z,7.23
2018-01-15T18:56:19.369Z,9.33
2018-01-15T18:58:46.867Z,7.90
2018-01-15T19:01:14.387Z,6.90
2018-01-15T19:03:42.646Z,5.60
2018-01-15T19:06:10.923Z,4.93
2018-01-15T19:08:39.186Z,4.57
2018-01-15T19:11:06.701Z,5.50
2018-01-15T19:13:34.194Z,4.60
2018-01-15T19:16:01.729Z,5.90
2018-01-15T19:18:29.242Z,4.87
2018-01-15T19:20:57.531Z,5.73
2018-01-15T19:23:25.085Z,8.77
2018-01-15T19:25:52.655Z,9.30
2018-01-15T19:28:20.162Z,4.67
2018-01-15T19:30:47.697Z,4.97
2018-01-15T19:33:15.249Z,4.53
2018-01-15T19:38:50.206Z,4.50
2018-01-15T19:41:32.594Z,4.33
2018-01-15T19:44:05.842Z,3.83
2018-01-15T19:46:39.145Z,3.47
2018-01-15T19:49:13.147Z,3.43
2018-01-15T19:51:47.054Z,3.80
2018-01-15T19:54:20.222Z,3.60
2018-01-15T19:56:53.357Z,4.50
2018-01-15T19:59:27.266Z,4.20
2018-01-15T20:02:01.335Z,5.33
2018-01-15T20:04:34.636Z,4.90
2018-01-15T20:07:07.846Z,5.40
2018-01-15T20:09:41.130Z,4.83
2018-01-15T20:12:09.397Z,4.57
2018-01-15T20:14:36.898Z,4.63
2018-01-15T20:17:04.457Z,4.10
2018-01-15T20:19:32.004Z,4.57
2018-01-15T20:22:00.289Z,5.10
2018-01-15T20:24:28.604Z,4.93
2018-01-15T20:26:56.095Z,5.30
2018-01-15T20:29:24.452Z,5.20
2018-01-15T20:31:51.984Z,6.10
2018-01-15T20:34:19.564Z,6.10
2018-01-15T20:36:47.054Z,5.60
2018-01-15T20:39:14.610Z,5.80
2018-01-15T20:41:42.156Z,5.47
2018-01-15T20:44:11.221Z,5.60
2018-01-15T20:46:38.718Z,5.97
2018-01-15T20:49:06.273Z,6.20
2018-01-15T20:51:33.836Z,5.93
2018-01-15T20:54:01.355Z,5.63
2018-01-15T20:56:28.847Z,6.47
2018-01-15T20:58:56.404Z,6.03
2018-01-15T21:01:23.948Z,5.10
2018-01-15T21:03:51.500Z,6.17
2018-01-15T21:06:19.045Z,6.80
2018-01-15T21:08:46.558Z,6.50
2018-01-15T21:11:14.877Z,6.10
2018-01-15T21:13:42.407Z,6.20
2018-01-15T21:16:10.733Z,5.67
2018-01-15T21:18:38.222Z,6.23
2018-01-15T21:21:05.764Z,4.70
2018-01-15T21:23:33.296Z,4.73
2018-01-15T21:26:00.858Z,4.80
2018-01-15T21:28:28.402Z,4.17
2018-01-15T21:30:55.913Z,5.37
2018-01-15T21:33:23.443Z,4.27
2018-01-15T21:35:50.996Z,3.77
2018-01-15T21:38:18.490Z,4.70
2018-01-15T21:40:46.810Z,4.23
2018-01-15T21:43:14.405Z,4.43
2018-01-15T21:45:41.965Z,4.67
2018-01-15T21:48:09.462Z,4.70
2018-01-15T21:50:37.734Z,4.40
2018-01-15T21:53:06.043Z,4.50
2018-01-15T21:55:33.582Z,4.60
2018-01-15T21:58:01.122Z,4.80
2018-01-15T22:00:29.446Z,4.47
2018-01-15T22:02:57.020Z,4.50
2018-01-15T22:05:24.564Z,4.60
2018-01-15T22:07:52.062Z,4.30
2018-01-15T22:10:19.574Z,4.37
2018-01-15T22:12:47.109Z,3.90
2018-01-15T22:15:14.618Z,4.53
2018-01-15T22:17:42.151Z,4.97
2018-01-15T22:20:09.710Z,5.00
2018-01-15T22:22:37.201Z,4.87
2018-01-15T22:25:05.516Z,5.87
2018-01-15T22:27:33.776Z,4.30
2018-01-15T22:30:02.116Z,10.97
2018-01-15T22:32:29.613Z,6.03
2018-01-15T22:34:57.930Z,4.97
2018-01-15T22:37:25.422Z,6.63
2018-01-15T22:39:52.935Z,6.10
2018-01-15T22:42:20.434Z,24.73
2018-01-15T22:44:47.945Z,12.70
2018-01-15T22:47:15.447Z,8.87
2018-01-15T22:49:42.958Z,6.87
2018-01-15T22:52:10.453Z,6.10
2018-01-15T22:54:37.962Z,4.97
2018-01-15T22:57:06.222Z,5.10
2018-01-15T22:59:34.501Z,6.37
2018-01-15T23:02:02.757Z,5.97
2018-01-15T23:04:30.263Z,4.50
2018-01-15T23:06:57.754Z,5.83
2018-01-15T23:09:25.270Z,4.70
2018-01-15T23:11:52.758Z,5.13
2018-01-15T23:14:20.289Z,4.20
2018-01-15T23:16:47.795Z,4.53
2018-01-15T23:19:15.291Z,4.77
2018-01-15T23:21:43.572Z,3.90
2018-01-15T23:24:11.843Z,4.50
2018-01-15T23:26:40.121Z,5.40
2018-01-15T23:29:08.378Z,4.00
2018-01-15T23:31:37.389Z,3.60
2018-01-15T23:34:05.678Z,2.80
2018-01-15T23:36:33.190Z,3.57
2018-01-15T23:39:01.449Z,3.90
2018-01-15T23:41:28.958Z,3.50
2018-01-15T23:43:57.241Z,4.03
2018-01-15T23:46:25.513Z,3.60
2018-01-15T23:48:53.769Z,4.23
2018-01-15T23:51:21.281Z,3.47
2018-01-15T23:53:48.774Z,4.43
2018-01-15T23:56:16.278Z,4.30
2018-01-15T23:58:43.790Z,4.40
